createdAt,value
2018-05-07T00:01:17.698Z,11.80
2018-05-07T00:03:45.161Z,11.80
2018-05-07T00:06:12.628Z,11.70
2018-05-07T00:08:40.148Z,11.70
2018-05-07T00:11:07.638Z,11.60
2018-05-07T00:13:35.069Z,11.60
2018-05-07T00:16:02.538Z,11.40
2018-05-07T00:18:30.089Z,11.30
2018-05-07T00:20:57.641Z,11.30
2018-05-07T00:23:25.210Z,11.20
2018-05-07T00:25:52.668Z,11.20
2018-05-07T00:28:20.126Z,11.20
2018-05-07T00:30:47.580Z,11.20
2018-05-07T00:33:15.169Z,11.20
2018-05-07T00:35:42.560Z,11.10
2018-05-07T00:38:10.016Z,11.10
2018-05-07T00:40:37.476Z,11.10
2018-05-07T00:43:04.929Z,11.10
2018-05-07T00:45:32.446Z,11.20
2018-05-07T00:47:59.989Z,11.20
2018-05-07T00:50:27.448Z,11.20
2018-05-07T00:52:55.009Z,11.10
2018-05-07T00:55:22.569Z,11.10
2018-05-07T00:57:50.133Z,11.10
2018-05-07T01:00:17.689Z,11.00
2018-05-07T01:02:45.145Z,11.00
2018-05-07T01:05:12.705Z,10.90
2018-05-07T01:07:40.172Z,10.90
2018-05-07T01:10:07.789Z,10.90
2018-05-07T01:12:35.232Z,10.80
2018-05-07T01:15:02.744Z,10.80
2018-05-07T01:17:30.204Z,10.70
2018-05-07T01:19:57.765Z,10.70
2018-05-07T01:22:25.320Z,10.50
2018-05-07T01:24:52.880Z,10.30
2018-05-07T01:27:20.345Z,10.20
2018-05-07T01:29:47.810Z,10.10
2018-05-07T01:32:15.266Z,10.10
2018-05-07T01:34:42.822Z,9.90
2018-05-07T01:37:10.269Z,9.80
2018-05-07T01:39:37.721Z,9.70
2018-05-07T01:42:05.259Z,9.70
2018-05-07T01:44:32.712Z,9.80
2018-05-07T01:47:00.166Z,9.80
2018-05-07T01:49:27.625Z,9.80
2018-05-07T01:51:55.081Z,9.60
2018-05-07T01:54:22.584Z,9.50
2018-05-07T01:56:50.105Z,9.40
2018-05-07T01:59:19.755Z,9.30
2018-05-07T02:01:47.312Z,9.20
2018-05-07T02:04:14.873Z,9.10
2018-05-07T02:06:42.337Z,9.10
2018-05-07T02:09:09.955Z,9.10
2018-05-07T02:11:37.400Z,9.10
2018-05-07T02:14:04.852Z,9.10
2018-05-07T02:16:32.368Z,9.10
2018-05-07T02:18:59.836Z,9.20
2018-05-07T02:21:27.296Z,9.10
2018-05-07T02:23:54.844Z,9.10
2018-05-07T02:26:22.401Z,9.10
2018-05-07T02:28:49.964Z,9.00
2018-05-07T02:31:17.431Z,8.90
2018-05-07T02:33:44.981Z,8.90
2018-05-07T02:36:12.449Z,8.90
2018-05-07T02:38:39.912Z,9.00
2018-05-07T02:41:07.366Z,9.00
2018-05-07T02:43:34.824Z,9.10
2018-05-07T02:46:02.438Z,9.10
2018-05-07T02:48:29.937Z,9.20
2018-05-07T02:50:57.504Z,9.20
2018-05-07T02:53:25.717Z,9.30
2018-05-07T02:55:53.173Z,9.20
2018-05-07T02:58:21.388Z,9.40
2018-05-07T03:00:48.848Z,9.30
2018-05-07T03:03:16.316Z,9.40
2018-05-07T03:05:43.775Z,9.40
2018-05-07T03:08:11.372Z,9.30
2018-05-07T03:10:39.624Z,9.30
2018-05-07T03:13:07.175Z,9.30
2018-05-07T03:15:34.633Z,9.20
2018-05-07T03:18:02.201Z,9.10
2018-05-07T03:20:29.760Z,9.00
2018-05-07T03:22:57.208Z,9.00
2018-05-07T03:25:24.778Z,9.00
2018-05-07T03:27:52.996Z,9.00
2018-05-07T03:30:20.445Z,9.00
2018-05-07T03:32:48.669Z,8.90
2018-05-07T03:35:16.145Z,8.90
2018-05-07T03:37:43.700Z,8.80
2018-05-07T03:40:11.265Z,8.80
2018-05-07T03:42:38.820Z,8.70
2018-05-07T03:45:06.277Z,8.60
2018-05-07T03:47:33.836Z,8.60
2018-05-07T03:50:01.291Z,8.60
2018-05-07T03:52:28.760Z,8.60
2018-05-07T03:54:56.218Z,8.70
2018-05-07T03:57:23.776Z,8.70
2018-05-07T03:59:51.332Z,8.80
2018-05-07T04:02:18.784Z,8.80
2018-05-07T04:04:46.244Z,8.80
2018-05-07T04:07:13.835Z,8.90
2018-05-07T04:09:41.377Z,8.90
2018-05-07T04:12:09.648Z,8.90
2018-05-07T04:14:37.110Z,8.90
2018-05-07T04:17:16.553Z,8.90
2018-05-07T04:19:56.652Z,8.90
2018-05-07T04:22:36.004Z,8.90
2018-05-07T04:25:03.488Z,9.00
2018-05-07T04:27:31.059Z,9.00
2018-05-07T04:29:59.294Z,9.00
2018-05-07T04:32:26.746Z,9.00
2018-05-07T04:34:54.196Z,9.10
2018-05-07T04:37:21.653Z,9.20
2018-05-07T04:39:49.104Z,9.20
2018-05-07T04:42:17.325Z,9.40
2018-05-07T04:44:44.799Z,9.40
2018-05-07T04:47:12.257Z,9.50
2018-05-07T04:49:39.705Z,9.70
2018-05-07T04:52:07.168Z,9.90
2018-05-07T04:54:34.732Z,10.00
2018-05-07T04:57:02.295Z,10.10
2018-05-07T04:59:29.864Z,10.30
2018-05-07T05:01:57.320Z,10.30
2018-05-07T05:04:24.781Z,10.50
2018-05-07T05:06:52.240Z,10.60
2018-05-07T05:09:19.701Z,10.70
2018-05-07T05:11:47.157Z,10.80
2018-05-07T05:14:14.613Z,10.90
2018-05-07T05:16:42.161Z,11.10
2018-05-07T05:19:09.619Z,11.20
2018-05-07T05:21:37.076Z,11.30
2018-05-07T05:24:04.644Z,11.40
2018-05-07T05:26:32.109Z,11.60
2018-05-07T05:28:59.569Z,12.00
2018-05-07T05:31:27.117Z,12.90
2018-05-07T05:33:54.588Z,13.70
2018-05-07T05:36:22.112Z,14.20
2018-05-07T05:38:49.651Z,14.40
2018-05-07T05:41:17.112Z,14.40
2018-05-07T05:43:44.708Z,14.20
2018-05-07T05:46:12.164Z,14.00
2018-05-07T05:48:39.630Z,13.90
2018-05-07T05:51:07.185Z,13.90
2018-05-07T05:53:34.640Z,13.90
2018-05-07T05:56:02.201Z,13.90
2018-05-07T05:58:29.770Z,13.80
2018-05-07T06:00:57.329Z,13.90
2018-05-07T06:03:24.885Z,13.90
2018-05-07T06:05:52.342Z,14.00
2018-05-07T06:08:19.809Z,14.00
2018-05-07T06:10:47.269Z,14.10
2018-05-07T06:13:14.819Z,14.10
2018-05-07T06:15:42.380Z,14.20
2018-05-07T06:18:09.945Z,14.30
2018-05-07T06:20:37.401Z,14.30
2018-05-07T06:23:04.957Z,14.30
2018-05-07T06:25:32.417Z,14.40
2018-05-07T06:27:59.976Z,14.40
2018-05-07T06:30:27.538Z,14.40
2018-05-07T06:32:54.994Z,14.50
2018-05-07T06:35:22.558Z,14.70
2018-05-07T06:37:50.021Z,14.80
2018-05-07T06:40:17.603Z,14.80
2018-05-07T06:42:45.044Z,14.90
2018-05-07T06:45:12.590Z,15.00
2018-05-07T06:47:40.157Z,15.00
2018-05-07T06:50:07.713Z,15.00
2018-05-07T06:52:35.278Z,15.10
2018-05-07T06:55:02.731Z,15.20
2018-05-07T06:57:30.187Z,15.30
2018-05-07T06:59:57.747Z,15.40
2018-05-07T07:02:25.326Z,15.60
2018-05-07T07:04:52.749Z,15.70
2018-05-07T07:07:20.228Z,15.80
2018-05-07T07:09:47.788Z,16.00
2018-05-07T07:12:15.244Z,16.00
2018-05-07T07:14:42.701Z,16.10
2018-05-07T07:17:10.262Z,16.20
2018-05-07T07:19:37.717Z,16.30
2018-05-07T07:22:05.177Z,16.50
2018-05-07T07:24:32.740Z,16.70
2018-05-07T07:27:00.297Z,16.80
2018-05-07T07:29:27.861Z,16.80
2018-05-07T07:31:55.421Z,16.80
2018-05-07T07:34:23.659Z,17.00
2018-05-07T07:36:51.105Z,17.00
2018-05-07T07:39:18.643Z,17.10
2018-05-07T07:41:46.078Z,17.00
2018-05-07T07:44:13.532Z,17.10
2018-05-07T07:46:41.090Z,17.20
2018-05-07T07:49:08.752Z,17.50
2018-05-07T07:51:36.312Z,17.60
2018-05-07T07:54:03.869Z,17.60
2018-05-07T07:56:31.433Z,17.70
2018-05-07T07:58:58.988Z,17.80
2018-05-07T08:01:26.515Z,17.80
2018-05-07T08:03:54.010Z,17.90
2018-05-07T08:06:21.574Z,17.90
2018-05-07T08:08:49.028Z,17.90
2018-05-07T08:11:16.492Z,17.90
2018-05-07T08:13:44.761Z,18.00
2018-05-07T08:16:12.222Z,18.00
2018-05-07T08:18:39.680Z,18.20
2018-05-07T08:21:07.140Z,18.30
2018-05-07T08:23:34.699Z,18.40
2018-05-07T08:26:02.257Z,18.40
2018-05-07T08:28:29.713Z,18.40
2018-05-07T08:30:57.257Z,18.50
2018-05-07T08:33:24.797Z,18.60
2018-05-07T08:35:52.297Z,18.60
2018-05-07T08:38:19.754Z,18.70
2018-05-07T08:40:47.209Z,18.60
2018-05-07T08:43:14.768Z,18.70
2018-05-07T08:45:42.336Z,18.80
2018-05-07T08:48:09.893Z,19.00
2018-05-07T08:50:37.457Z,19.20
2018-05-07T08:53:05.136Z,19.20
2018-05-07T08:55:32.584Z,19.20
2018-05-07T08:58:00.042Z,19.20
2018-05-07T09:00:27.655Z,19.20
2018-05-07T09:02:55.105Z,19.30
2018-05-07T09:05:22.560Z,19.30
2018-05-07T09:07:50.065Z,19.30
2018-05-07T09:10:17.626Z,19.50
2018-05-07T09:12:45.080Z,19.60
2018-05-07T09:15:12.537Z,19.70
2018-05-07T09:17:39.997Z,19.80
2018-05-07T09:20:07.452Z,19.80
2018-05-07T09:22:34.908Z,19.90
2018-05-07T09:25:02.478Z,20.10
2018-05-07T09:27:29.933Z,20.00
2018-05-07T09:29:57.497Z,20.20
2018-05-07T09:32:25.772Z,20.40
2018-05-07T09:34:53.340Z,20.40
2018-05-07T09:37:20.797Z,20.50
2018-05-07T09:39:48.253Z,20.40
2018-05-07T09:42:15.809Z,20.40
2018-05-07T09:44:43.265Z,20.50
2018-05-07T09:47:10.738Z,20.60
2018-05-07T09:49:38.285Z,20.60
2018-05-07T09:52:05.740Z,20.70
2018-05-07T09:54:33.301Z,20.90
2018-05-07T09:57:00.769Z,21.10
2018-05-07T09:59:28.333Z,21.10
2018-05-07T10:01:55.796Z,21.10
2018-05-07T10:04:23.256Z,21.30
2018-05-07T10:06:50.712Z,21.30
2018-05-07T10:09:18.261Z,21.30
2018-05-07T10:11:45.818Z,21.30
2018-05-07T10:14:13.277Z,21.30
2018-05-07T10:16:40.732Z,21.20
2018-05-07T10:19:08.192Z,21.30
2018-05-07T10:21:35.652Z,21.20
2018-05-07T10:24:03.109Z,21.20
2018-05-07T10:26:30.669Z,21.40
2018-05-07T10:28:58.129Z,21.30
2018-05-07T10:31:25.689Z,21.30
2018-05-07T10:33:53.144Z,21.30
2018-05-07T10:36:20.600Z,21.30
2018-05-07T10:38:48.060Z,21.30
2018-05-07T10:41:15.579Z,21.40
2018-05-07T10:43:43.029Z,21.50
2018-05-07T10:46:10.532Z,21.60
2018-05-07T10:48:38.092Z,21.80
2018-05-07T10:51:05.548Z,21.90
2018-05-07T10:53:33.117Z,22.00
2018-05-07T10:56:00.573Z,22.10
2018-05-07T10:58:28.133Z,22.10
2018-05-07T11:00:55.584Z,22.20
2018-05-07T11:03:23.043Z,22.20
2018-05-07T11:05:50.497Z,22.10
2018-05-07T11:08:17.961Z,22.20
2018-05-07T11:10:45.520Z,22.30
2018-05-07T11:13:13.081Z,22.30
2018-05-07T11:15:40.536Z,22.30
2018-05-07T11:18:08.009Z,22.30
2018-05-07T11:20:35.473Z,22.20
2018-05-07T11:23:02.933Z,22.10
2018-05-07T11:25:30.472Z,22.00
2018-05-07T11:27:57.937Z,21.90
2018-05-07T11:30:26.214Z,22.10
2018-05-07T11:32:53.668Z,22.20
2018-05-07T11:35:21.135Z,22.40
2018-05-07T11:37:49.405Z,22.00
2018-05-07T11:40:17.680Z,22.00
2018-05-07T11:42:45.241Z,22.00
2018-05-07T11:45:12.806Z,22.20
2018-05-07T11:47:40.367Z,22.10
2018-05-07T11:50:07.928Z,22.20
2018-05-07T11:52:35.384Z,22.30
2018-05-07T11:55:02.850Z,22.30
2018-05-07T11:57:31.112Z,22.40
2018-05-07T11:59:58.689Z,22.40
2018-05-07T12:02:26.203Z,22.50
2018-05-07T12:04:53.598Z,22.50
2018-05-07T12:07:21.157Z,22.50
2018-05-07T12:09:49.434Z,22.60
2018-05-07T12:12:16.998Z,22.60
2018-05-07T12:14:44.554Z,22.70
2018-05-07T12:17:12.014Z,22.90
2018-05-07T12:19:39.569Z,23.00
2018-05-07T12:22:07.192Z,23.10
2018-05-07T12:24:34.642Z,23.00
2018-05-07T12:27:02.211Z,23.10
2018-05-07T12:29:29.659Z,23.00
2018-05-07T12:31:57.281Z,23.10
2018-05-07T12:34:24.729Z,23.00
2018-05-07T12:36:52.185Z,23.00
2018-05-07T12:39:19.748Z,23.10
2018-05-07T12:41:47.304Z,23.10
2018-05-07T12:44:14.765Z,23.10
2018-05-07T12:46:42.345Z,23.10
2018-05-07T12:49:09.885Z,23.20
2018-05-07T12:51:37.440Z,23.10
2018-05-07T12:54:04.912Z,23.20
2018-05-07T12:56:32.460Z,23.00
2018-05-07T12:58:59.972Z,23.10
2018-05-07T13:01:27.381Z,23.10
2018-05-07T13:03:54.941Z,23.10
2018-05-07T13:06:22.401Z,23.10
2018-05-07T13:08:50.628Z,23.10
2018-05-07T13:11:18.085Z,23.10
2018-05-07T13:13:45.589Z,23.30
2018-05-07T13:16:13.050Z,23.30
2018-05-07T13:18:40.508Z,23.10
2018-05-07T13:21:08.065Z,23.00
2018-05-07T13:23:35.524Z,23.00
2018-05-07T13:26:02.989Z,23.00
2018-05-07T13:28:30.546Z,22.90
2018-05-07T13:30:58.004Z,22.80
2018-05-07T13:33:25.469Z,23.00
2018-05-07T13:35:52.924Z,23.10
2018-05-07T13:38:20.381Z,23.30
2018-05-07T13:40:47.836Z,23.30
2018-05-07T13:43:15.299Z,23.10
2018-05-07T13:45:43.580Z,22.80
2018-05-07T13:48:11.045Z,22.80
2018-05-07T13:50:38.585Z,22.80
2018-05-07T13:53:06.148Z,23.00
2018-05-07T13:55:33.705Z,23.10
2018-05-07T13:58:01.266Z,23.00
2018-05-07T14:00:28.745Z,23.10
2018-05-07T14:02:56.292Z,23.10
2018-05-07T14:05:24.513Z,23.10
2018-05-07T14:07:51.974Z,23.10
2018-05-07T14:10:19.476Z,23.20
2018-05-07T14:12:46.937Z,23.10
2018-05-07T14:15:14.393Z,23.10
2018-05-07T14:17:41.852Z,23.00
2018-05-07T14:20:09.314Z,22.90
2018-05-07T14:22:36.869Z,22.90
2018-05-07T14:25:04.325Z,22.90
2018-05-07T14:27:31.893Z,22.80
2018-05-07T14:29:59.349Z,22.90
2018-05-07T14:32:26.808Z,22.90
2018-05-07T14:34:55.144Z,22.90
2018-05-07T14:37:22.704Z,22.90
2018-05-07T14:39:50.204Z,22.90
2018-05-07T14:42:17.673Z,23.00
2018-05-07T14:44:45.128Z,22.90
2018-05-07T14:47:12.681Z,22.80
2018-05-07T14:49:40.242Z,22.70
2018-05-07T14:52:07.697Z,22.70
2018-05-07T14:54:35.261Z,22.80
2018-05-07T14:57:02.821Z,22.70
2018-05-07T14:59:30.379Z,22.70
2018-05-07T15:01:57.936Z,22.50
2018-05-07T15:04:25.397Z,22.40
2018-05-07T15:06:52.916Z,22.30
2018-05-07T15:09:20.369Z,22.30
2018-05-07T15:11:47.878Z,22.20
2018-05-07T15:14:22.125Z,22.20
2018-05-07T15:16:50.355Z,22.20
2018-05-07T15:19:17.813Z,22.20
2018-05-07T15:21:45.284Z,22.20
2018-05-07T15:24:12.844Z,22.20
2018-05-07T15:26:40.405Z,22.10
2018-05-07T15:31:40.620Z,22.10
2018-05-07T15:34:08.093Z,22.00
2018-05-07T15:36:35.560Z,21.90
2018-05-07T15:39:03.037Z,21.90
2018-05-07T15:41:31.257Z,21.80
2018-05-07T15:43:58.833Z,21.80
2018-05-07T15:46:26.317Z,21.80
2018-05-07T15:48:53.936Z,21.80
2018-05-07T15:51:21.393Z,21.80
2018-05-07T15:53:48.942Z,21.80
2018-05-07T15:56:16.364Z,21.80
2018-05-07T15:58:43.917Z,21.80
2018-05-07T16:01:11.381Z,21.80
2018-05-07T16:03:38.925Z,21.70
2018-05-07T16:06:06.390Z,21.70
2018-05-07T16:08:33.945Z,21.70
2018-05-07T16:11:01.504Z,21.70
2018-05-07T16:13:29.068Z,21.70
2018-05-07T16:15:56.654Z,21.70
2018-05-07T16:18:24.293Z,21.60
2018-05-07T16:20:51.719Z,21.50
2018-05-07T16:23:19.272Z,21.50
2018-05-07T16:25:46.698Z,21.50
2018-05-07T16:28:14.245Z,21.40
2018-05-07T16:30:42.496Z,21.40
2018-05-07T16:33:10.110Z,21.40
2018-05-07T16:35:37.613Z,21.40
2018-05-07T16:38:04.998Z,21.30
2018-05-07T16:40:32.536Z,21.30
2018-05-07T16:43:00.771Z,21.20
2018-05-07T16:45:28.278Z,21.20
2018-05-07T16:47:55.733Z,21.10
2018-05-07T16:50:23.188Z,21.10
2018-05-07T16:52:50.749Z,21.00
2018-05-07T16:55:18.321Z,21.00
2018-05-07T16:57:45.873Z,21.00
2018-05-07T17:00:13.429Z,20.90
2018-05-07T17:02:40.889Z,20.90
2018-05-07T17:05:09.165Z,20.80
2018-05-07T17:07:36.625Z,20.70
2018-05-07T17:10:04.092Z,20.70
2018-05-07T17:12:31.541Z,20.70
2018-05-07T17:14:59.816Z,20.60
2018-05-07T17:17:27.280Z,20.50
2018-05-07T17:19:54.736Z,20.50
2018-05-07T17:22:22.192Z,20.50
2018-05-07T17:24:49.757Z,20.40
2018-05-07T17:27:17.309Z,20.30
2018-05-07T17:29:44.869Z,20.30
2018-05-07T17:32:12.443Z,20.20
2018-05-07T17:34:39.892Z,20.20
2018-05-07T17:37:07.354Z,20.20
2018-05-07T17:39:34.813Z,20.20
2018-05-07T17:42:02.301Z,20.20
2018-05-07T17:44:42.425Z,20.00
2018-05-07T17:47:21.966Z,20.00
2018-05-07T17:49:49.423Z,20.00
2018-05-07T17:52:16.883Z,19.90
2018-05-07T17:54:44.347Z,19.90
2018-05-07T17:57:11.927Z,19.90
2018-05-07T17:59:40.173Z,19.80
2018-05-07T18:02:07.734Z,19.80
2018-05-07T18:04:35.195Z,19.70
2018-05-07T18:07:02.757Z,19.70
2018-05-07T18:09:30.308Z,19.70
2018-05-07T18:11:57.869Z,19.60
2018-05-07T18:14:25.440Z,19.60
2018-05-07T18:16:52.905Z,19.50
2018-05-07T18:19:20.450Z,19.40
2018-05-07T18:21:48.609Z,19.30
2018-05-07T18:24:16.085Z,19.30
2018-05-07T18:26:43.641Z,19.20
2018-05-07T18:29:11.209Z,19.10
2018-05-07T18:31:38.769Z,19.00
2018-05-07T18:34:06.324Z,19.00
2018-05-07T18:36:33.789Z,19.00
2018-05-07T18:39:01.253Z,19.00
2018-05-07T18:41:28.713Z,18.90
2018-05-07T18:43:56.182Z,18.80
2018-05-07T18:46:24.499Z,18.70
2018-05-07T18:48:51.949Z,18.70
2018-05-07T18:51:19.456Z,18.60
2018-05-07T18:53:46.946Z,18.50
2018-05-07T18:56:15.250Z,18.30
2018-05-07T18:58:42.771Z,18.30
2018-05-07T19:01:10.305Z,18.20
2018-05-07T19:03:37.768Z,18.10
2018-05-07T19:06:05.328Z,18.00
2018-05-07T19:08:32.886Z,18.00
2018-05-07T19:11:00.340Z,17.90
2018-05-07T19:13:27.918Z,17.80
2018-05-07T19:15:55.381Z,17.70
2018-05-07T19:18:22.845Z,17.60
2018-05-07T19:20:51.069Z,17.50
2018-05-07T19:23:18.547Z,17.50
2018-05-07T19:25:46.000Z,17.40
2018-05-07T19:28:13.473Z,17.30
2018-05-07T19:30:40.940Z,17.20
2018-05-07T19:33:09.211Z,17.10
2018-05-07T19:35:36.669Z,17.10
2018-05-07T19:38:04.135Z,17.00
2018-05-07T19:40:31.680Z,16.90
2018-05-07T19:42:59.137Z,16.80
2018-05-07T19:45:26.605Z,16.70
2018-05-07T19:47:54.099Z,16.70
2018-05-07T19:50:21.534Z,16.60
2018-05-07T19:52:49.076Z,16.60
2018-05-07T19:55:17.356Z,16.50
2018-05-07T19:57:45.629Z,16.50
2018-05-07T20:00:13.080Z,16.40
2018-05-07T20:02:40.648Z,16.40
2018-05-07T20:05:08.219Z,16.40
2018-05-07T20:07:35.680Z,16.40
2018-05-07T20:10:03.137Z,16.30
2018-05-07T20:12:30.662Z,16.30
2018-05-07T20:14:58.856Z,16.20
2018-05-07T20:17:26.420Z,16.20
2018-05-07T20:19:53.998Z,16.10
2018-05-07T20:22:21.545Z,16.10
2018-05-07T20:24:49.105Z,16.00
2018-05-07T20:27:16.633Z,16.00
2018-05-07T20:29:44.101Z,15.80
2018-05-07T20:32:11.568Z,15.80
2018-05-07T20:34:39.040Z,15.70
2018-05-07T20:37:06.600Z,15.70
2018-05-07T20:39:34.061Z,15.60
2018-05-07T20:42:01.522Z,15.50
2018-05-07T20:44:29.077Z,15.50
2018-05-07T20:46:56.637Z,15.30
2018-05-07T20:49:24.127Z,15.30
2018-05-07T20:51:52.370Z,15.20
2018-05-07T20:54:19.926Z,15.20
2018-05-07T20:56:47.388Z,15.20
2018-05-07T20:59:14.863Z,15.10
2018-05-07T21:01:42.326Z,15.10
2018-05-07T21:04:10.582Z,15.10
2018-05-07T21:06:38.141Z,15.00
2018-05-07T21:09:05.698Z,15.00
2018-05-07T21:11:33.224Z,15.00
2018-05-07T21:14:00.726Z,15.00
2018-05-07T21:16:28.345Z,15.00
2018-05-07T21:18:55.841Z,15.00
2018-05-07T21:21:23.410Z,15.00
2018-05-07T21:23:50.869Z,15.00
2018-05-07T21:26:18.329Z,15.00
2018-05-07T21:28:46.554Z,14.90
2018-05-07T21:31:14.018Z,14.90
2018-05-07T21:33:41.472Z,14.90
2018-05-07T21:36:08.937Z,14.90
2018-05-07T21:38:36.412Z,14.90
2018-05-07T21:41:03.878Z,14.90
2018-05-07T21:43:31.364Z,14.90
2018-05-07T21:45:58.801Z,14.90
2018-05-07T21:48:26.265Z,14.80
2018-05-07T21:50:53.732Z,14.80
2018-05-07T21:53:21.280Z,14.80
2018-05-07T21:55:48.840Z,14.70
2018-05-07T21:58:16.292Z,14.70
2018-05-07T22:00:43.752Z,14.60
2018-05-07T22:03:11.238Z,14.60
2018-05-07T22:05:39.492Z,14.50
2018-05-07T22:08:07.848Z,14.40
2018-05-07T22:10:36.040Z,14.30
2018-05-07T22:13:04.321Z,14.20
2018-05-07T22:15:31.893Z,14.20
2018-05-07T22:17:59.340Z,14.10
2018-05-07T22:20:26.816Z,14.00
2018-05-07T22:22:54.272Z,14.00
2018-05-07T22:25:21.724Z,14.10
2018-05-07T22:27:49.185Z,14.20
2018-05-07T22:30:16.644Z,14.20
2018-05-07T22:32:44.190Z,14.20
2018-05-07T22:35:11.751Z,14.20
2018-05-07T22:37:39.304Z,14.20
2018-05-07T22:40:06.769Z,14.20
2018-05-07T22:42:34.326Z,14.20
2018-05-07T22:45:01.846Z,14.20
2018-05-07T22:47:29.293Z,14.20
2018-05-07T22:49:56.748Z,14.10
2018-05-07T22:52:24.278Z,14.20
2018-05-07T22:54:51.673Z,14.10
2018-05-07T22:57:19.178Z,14.10
2018-05-07T22:59:46.797Z,14.10
2018-05-07T23:02:14.245Z,14.10
2018-05-07T23:04:41.756Z,14.10
2018-05-07T23:07:09.212Z,14.10
2018-05-07T23:09:36.773Z,14.10
2018-05-07T23:12:04.229Z,14.00
2018-05-07T23:14:31.800Z,14.00
2018-05-07T23:16:59.267Z,14.00
2018-05-07T23:19:26.721Z,14.00
2018-05-07T23:21:54.272Z,13.90
2018-05-07T23:24:21.737Z,13.90
2018-05-07T23:26:49.196Z,14.00
2018-05-07T23:29:16.653Z,13.90
2018-05-07T23:31:44.261Z,13.90
2018-05-07T23:34:11.708Z,13.90
2018-05-07T23:36:39.170Z,13.80
2018-05-07T23:39:06.673Z,13.80
2018-05-07T23:41:34.232Z,13.80
2018-05-07T23:44:01.794Z,13.80
2018-05-07T23:46:30.077Z,13.70
2018-05-07T23:48:57.528Z,13.70
2018-05-07T23:51:24.994Z,13.60
2018-05-07T23:53:52.452Z,13.60
2018-05-07T23:56:19.909Z,13.50
2018-05-07T23:58:47.464Z,13.50
